Bessie, Oklahoma
Current Conditions -  °F | °C
As of 8:55 PM on Tuesday 21 Oct 2014 (Local Time) from KCLK Reporting Station
Clear Clear  
Wind Chill: 19°   Ceiling: Unl
Heat Index: 19°   Visibility: 10mi
Dew Point: 11°   Wind: 6mph
Humidity: 60%   Direction: 150°SSE
Pressure: 30.06"   Gusts: NA
Location:  35.39°N, 98.99°W
Report Text: KCLK 220155Z AUTO 15005KT 10SM CLR 19/11 A3006 RMK AO2
Loading
Personal Weather Stations






























Interactive Weather Map
Tropical Storm Tracking
New forecast layout! Learn more

10-Day Weather Forecast

Advertisements
Track Severe Weather on mobile